Time;durP1;ratioP1;P1;durP2;ratioP2;P2;SDS_P1;SDS_P2;PMS_P1;PMS_P2;Temp;Humidity;BMP_temperature;BMP_pressure;BME280_temperature;BME280_humidity;BME280_pressure;Samples;Min_cycle;Max_cycle;Signal;HPM_P1;HPM_P2
2022/03/25 00:01:38;;;;;;;34.80;22.67;;;10.00;80.50;;;;;;5043671;28;20122;-42
2022/03/25 00:04:04;;;;;;;30.20;20.90;;;10.00;80.50;;;;;;5044163;28;20037;-42
2022/03/25 00:06:30;;;;;;;38.85;21.73;;;9.90;80.50;;;;;;5044778;28;20036;-42
2022/03/25 00:08:56;;;;;;;34.83;20.80;;;9.90;80.60;;;;;;5043514;28;20041;-42
2022/03/25 00:11:21;;;;;;;34.83;20.60;;;9.80;80.50;;;;;;5044190;28;20055;-42
2022/03/25 00:13:47;;;;;;;35.67;21.45;;;9.80;80.40;;;;;;5044473;28;20617;-42
2022/03/25 00:16:13;;;;;;;33.22;22.00;;;9.80;80.20;;;;;;5043812;28;20021;-42
2022/03/25 00:18:38;;;;;;;32.28;20.08;;;9.70;80.20;;;;;;5044661;28;20017;-41
2022/03/25 00:21:05;;;;;;;31.63;18.42;;;9.70;80.10;;;;;;5043957;28;20031;-42
2022/03/25 00:23:30;;;;;;;29.65;20.13;;;9.60;80.10;;;;;;5044582;28;20035;-41
2022/03/25 00:25:57;;;;;;;30.00;18.65;;;9.50;80.30;;;;;;5043607;28;20016;-40
2022/03/25 00:28:22;;;;;;;32.38;20.60;;;9.40;80.40;;;;;;5033347;28;20037;-42
2022/03/25 00:30:49;;;;;;;33.33;21.38;;;9.40;80.50;;;;;;5043606;28;20094;-43
2022/03/25 00:33:16;;;;;;;37.05;20.83;;;9.30;80.50;;;;;;5044654;28;20029;-43
2022/03/25 00:35:42;;;;;;;34.85;22.27;;;9.30;80.50;;;;;;5043232;28;20099;-41
2022/03/25 00:38:08;;;;;;;36.60;22.67;;;9.30;80.50;;;;;;5044327;28;20013;-43
2022/03/25 00:40:33;;;;;;;34.08;21.90;;;9.20;80.40;;;;;;5044102;28;20048;-42
2022/03/25 00:42:59;;;;;;;34.45;21.35;;;9.20;80.40;;;;;;5043182;28;20511;-41
2022/03/25 00:45:25;;;;;;;31.77;21.80;;;9.20;80.40;;;;;;5044757;28;20026;-42
2022/03/25 00:47:51;;;;;;;35.20;22.63;;;9.20;80.40;;;;;;5043793;28;20032;-42
2022/03/25 00:50:16;;;;;;;34.00;21.33;;;9.10;80.40;;;;;;5043827;28;20682;-42
2022/03/25 00:52:42;;;;;;;36.20;22.85;;;9.10;80.50;;;;;;5043828;28;20025;-42
2022/03/25 00:55:08;;;;;;;40.35;23.58;;;9.10;80.70;;;;;;5043791;28;20528;-40
2022/03/25 00:57:34;;;;;;;40.08;24.30;;;9.00;80.70;;;;;;5046073;28;20028;-42
2022/03/25 01:00:00;;;;;;;40.25;26.25;;;9.00;80.80;;;;;;5047788;28;20179;-41
2022/03/25 01:02:25;;;;;;;44.60;25.58;;;8.90;80.90;;;;;;5047757;28;20021;-42
2022/03/25 01:04:51;;;;;;;42.30;26.05;;;8.80;81.00;;;;;;5046650;28;20087;-43
2022/03/25 01:07:17;;;;;;;39.78;25.23;;;8.80;81.10;;;;;;5047593;28;20469;-42
2022/03/25 01:09:44;;;;;;;39.17;24.67;;;8.80;81.20;;;;;;5046895;28;20167;-41
2022/03/25 01:12:10;;;;;;;38.83;24.92;;;8.70;81.30;;;;;;5047196;28;20028;-40
2022/03/25 01:14:36;;;;;;;39.10;25.50;;;8.70;81.50;;;;;;5047535;28;20340;-42
2022/03/25 01:17:02;;;;;;;38.30;25.30;;;8.60;81.70;;;;;;5046890;28;20511;-40
2022/03/25 01:19:27;;;;;;;42.85;25.98;;;8.60;81.80;;;;;;5046471;28;20064;-41
2022/03/25 01:21:54;;;;;;;42.10;26.60;;;8.50;81.90;;;;;;5046794;28;20044;-43
2022/03/25 01:24:20;;;;;;;45.58;27.25;;;8.40;82.10;;;;;;5047125;28;20040;-42
2022/03/25 01:26:46;;;;;;;41.28;25.85;;;8.40;82.20;;;;;;5046167;28;20027;-42
2022/03/25 01:29:12;;;;;;;40.00;24.58;;;8.40;82.30;;;;;;5047571;28;20376;-41
2022/03/25 01:31:38;;;;;;;39.22;24.77;;;8.40;82.40;;;;;;5047898;28;20121;-42
2022/03/25 01:34:04;;;;;;;43.28;26.33;;;8.30;82.60;;;;;;5045692;28;20766;-40
2022/03/25 01:36:30;;;;;;;37.85;25.45;;;8.20;82.90;;;;;;5047191;28;20025;-42
2022/03/25 01:38:56;;;;;;;40.92;25.40;;;8.20;83.20;;;;;;5046313;28;20021;-42
2022/03/25 01:41:21;;;;;;;45.28;27.42;;;8.20;83.40;;;;;;5047033;28;20166;-43
2022/03/25 01:43:53;;;;;;;42.00;27.88;;;8.10;83.50;;;;;;5046217;28;20021;-42
2022/03/25 01:46:19;;;;;;;42.53;28.03;;;8.10;83.60;;;;;;5046714;28;20598;-43
2022/03/25 01:48:44;;;;;;;46.05;28.10;;;8.10;83.70;;;;;;5045968;28;20029;-42
2022/03/25 01:51:10;;;;;;;44.17;28.38;;;8.00;83.80;;;;;;5047034;28;20083;-39
2022/03/25 01:53:36;;;;;;;48.75;29.60;;;8.00;83.90;;;;;;5046393;28;20661;-42
2022/03/25 01:56:02;;;;;;;48.33;31.27;;;8.00;84.20;;;;;;5046200;28;20025;-42
2022/03/25 01:58:30;;;;;;;47.35;30.02;;;8.00;84.60;;;;;;5046088;28;20029;-42
2022/03/25 02:00:57;;;;;;;51.50;30.60;;;7.90;84.60;;;;;;5045582;28;20082;-41
2022/03/25 02:03:22;;;;;;;52.38;32.92;;;7.90;84.90;;;;;;5046293;28;20789;-41
2022/03/25 02:05:49;;;;;;;52.97;33.05;;;7.90;85.30;;;;;;5045852;28;20037;-42
2022/03/25 02:08:15;;;;;;;52.03;31.92;;;7.80;85.60;;;;;;5045541;28;20021;-40
2022/03/25 02:10:41;;;;;;;53.58;31.85;;;7.80;85.80;;;;;;5045194;28;20029;-42
2022/03/25 02:13:11;;;;;;;53.70;32.83;;;7.70;86.10;;;;;;5046339;28;20036;-40
2022/03/25 02:15:43;;;;;;;56.45;34.58;;;7.70;86.20;;;;;;5045573;28;20029;-40
2022/03/25 02:18:17;;;;;;;57.40;35.47;;;7.70;86.50;;;;;;5046231;28;20037;-43
2022/03/25 02:20:44;;;;;;;55.80;35.05;;;7.60;86.60;;;;;;5045547;28;20033;-41
2022/03/25 02:23:10;;;;;;;55.92;34.88;;;7.50;86.80;;;;;;5045982;28;20693;-42
2022/03/25 02:25:38;;;;;;;58.50;35.63;;;7.50;87.20;;;;;;5046001;28;20025;-42
2022/03/25 02:28:04;;;;;;;53.38;34.40;;;7.40;87.40;;;;;;5045563;28;20538;-41
2022/03/25 02:30:31;;;;;;;57.25;34.58;;;7.30;87.70;;;;;;5045008;28;20793;-43
2022/03/25 02:33:00;;;;;;;56.40;36.08;;;7.30;88.10;;;;;;5045496;28;20028;-41
2022/03/25 02:35:49;;;;;;;60.40;36.63;;;7.20;88.20;;;;;;5045365;28;20029;-44
2022/03/25 02:38:20;;;;;;;59.63;36.75;;;7.20;88.70;;;;;;5045952;28;20044;-42
2022/03/25 02:40:46;;;;;;;60.70;37.78;;;7.10;88.80;;;;;;5045200;28;20121;-41
2022/03/25 02:43:12;;;;;;;61.05;37.90;;;7.10;88.90;;;;;;5045513;28;20025;-42
2022/03/25 02:45:38;;;;;;;61.20;37.05;;;7.10;89.30;;;;;;5045577;28;20035;-42
2022/03/25 02:48:04;;;;;;;62.33;37.60;;;7.10;89.40;;;;;;5045322;28;20025;-42
2022/03/25 02:50:30;;;;;;;64.75;38.92;;;7.10;89.70;;;;;;5045319;28;20033;-41
2022/03/25 02:53:00;;;;;;;59.78;37.88;;;7.10;89.80;;;;;;5044924;28;20087;-42
2022/03/25 02:55:25;;;;;;;59.67;36.90;;;7.10;89.90;;;;;;5045065;28;20072;-42
2022/03/25 02:57:52;;;;;;;53.90;34.35;;;7.10;90.00;;;;;;5044435;28;20456;-42
2022/03/25 03:00:20;;;;;;;51.28;33.40;;;7.10;90.00;;;;;;5045614;28;20432;-42
2022/03/25 03:02:46;;;;;;;52.10;33.53;;;7.00;89.80;;;;;;5044840;28;20021;-42
2022/03/25 03:05:11;;;;;;;54.53;33.15;;;7.00;89.80;;;;;;5044862;28;20083;-41
2022/03/25 03:07:37;;;;;;;58.00;33.72;;;7.00;89.70;;;;;;5044858;28;20029;-43
2022/03/25 03:10:05;;;;;;;53.00;34.08;;;7.00;89.80;;;;;;5045079;28;20039;-41
2022/03/25 03:12:32;;;;;;;53.30;33.83;;;6.90;90.00;;;;;;5044594;28;20128;-43
2022/03/25 03:14:58;;;;;;;55.00;33.40;;;6.90;90.00;;;;;;5044976;28;20063;-40
2022/03/25 03:17:23;;;;;;;58.80;36.72;;;6.90;90.00;;;;;;5044788;28;20037;-41
2022/03/25 03:19:50;;;;;;;56.38;35.67;;;6.90;90.10;;;;;;5044002;28;20786;-40
2022/03/25 03:22:17;;;;;;;60.80;37.90;;;6.90;90.20;;;;;;5045011;28;20032;-41
2022/03/25 03:24:43;;;;;;;57.67;35.83;;;6.90;90.30;;;;;;5044240;28;20136;-42
2022/03/25 03:27:08;;;;;;;55.38;36.67;;;6.80;90.30;;;;;;5044879;28;20058;-41
2022/03/25 03:29:34;;;;;;;55.45;36.83;;;6.80;90.30;;;;;;5045752;28;20051;-41
2022/03/25 03:31:59;;;;;;;58.35;36.08;;;6.80;90.30;;;;;;5043777;28;20533;-40
2022/03/25 03:34:25;;;;;;;57.20;35.58;;;6.70;90.40;;;;;;5044547;28;20029;-42
2022/03/25 03:36:50;;;;;;;62.42;37.28;;;6.70;90.50;;;;;;5044882;28;20033;-41
2022/03/25 03:39:16;;;;;;;59.67;37.67;;;6.60;90.60;;;;;;5044347;28;20040;-42
2022/03/25 03:41:42;;;;;;;54.17;36.15;;;6.60;90.70;;;;;;5044398;28;20033;-41
2022/03/25 03:44:07;;;;;;;61.88;36.63;;;6.50;90.80;;;;;;5044643;28;20472;-42
2022/03/25 03:46:33;;;;;;;53.67;34.58;;;6.50;90.80;;;;;;5043947;28;20156;-42
2022/03/25 03:48:59;;;;;;;62.45;39.65;;;6.50;90.90;;;;;;5043560;28;20052;-42
2022/03/25 03:51:24;;;;;;;63.75;39.08;;;6.50;90.90;;;;;;5044917;28;20036;-42
2022/03/25 03:53:50;;;;;;;61.10;39.17;;;6.50;91.00;;;;;;5043708;28;20049;-40
2022/03/25 03:56:15;;;;;;;58.40;36.83;;;6.50;91.00;;;;;;5045052;28;20067;-41
2022/03/25 03:58:41;;;;;;;56.75;35.83;;;6.50;91.00;;;;;;5043859;28;20526;-41
2022/03/25 04:01:07;;;;;;;58.35;37.45;;;6.50;91.00;;;;;;5044252;28;20021;-43
2022/03/25 04:03:32;;;;;;;61.85;38.95;;;6.40;91.10;;;;;;5044310;28;20518;-43
2022/03/25 04:05:59;;;;;;;57.53;36.88;;;6.40;91.20;;;;;;5043945;28;20033;-43
2022/03/25 04:08:27;;;;;;;63.22;39.92;;;6.40;91.30;;;;;;5043590;28;20029;-42
2022/03/25 04:10:53;;;;;;;62.72;39.20;;;6.50;91.40;;;;;;5043871;28;20029;-39
2022/03/25 04:13:18;;;;;;;59.10;38.97;;;6.50;91.40;;;;;;5044834;28;20017;-41
2022/03/25 04:15:44;;;;;;;58.63;37.15;;;6.50;91.40;;;;;;5043199;28;20063;-41
2022/03/25 04:18:09;;;;;;;60.20;39.25;;;6.50;91.40;;;;;;5044275;28;20198;-41
2022/03/25 04:20:35;;;;;;;62.28;38.72;;;6.40;91.50;;;;;;5044534;28;20036;-39
2022/03/25 04:23:00;;;;;;;60.17;39.60;;;6.40;91.50;;;;;;5043210;28;20029;-42
2022/03/25 04:25:26;;;;;;;63.80;39.88;;;6.40;91.60;;;;;;5044225;28;20141;-42
2022/03/25 04:27:57;;;;;;;61.42;40.00;;;6.40;91.70;;;;;;5044159;28;20461;-41
2022/03/25 04:30:27;;;;;;;63.17;41.70;;;6.40;91.70;;;;;;5044161;28;20029;-43
2022/03/25 04:32:54;;;;;;;64.97;41.28;;;6.40;91.80;;;;;;5027155;28;20032;-41
2022/03/25 04:35:21;;;;;;;62.03;39.67;;;6.40;91.80;;;;;;5042016;28;20144;-42
2022/03/25 04:37:47;;;;;;;66.50;42.25;;;6.40;91.90;;;;;;5047359;28;20017;-42
2022/03/25 04:40:17;;;;;;;63.70;40.33;;;6.40;91.90;;;;;;5047848;28;20507;-43
2022/03/25 04:42:44;;;;;;;66.82;42.70;;;6.30;92.00;;;;;;5047490;28;20072;-41
2022/03/25 04:45:09;;;;;;;64.38;41.13;;;6.30;92.10;;;;;;5048079;28;20028;-43
2022/03/25 04:47:35;;;;;;;67.45;41.80;;;6.30;92.20;;;;;;5047975;28;20029;-41
2022/03/25 04:50:01;;;;;;;64.90;41.75;;;6.30;92.30;;;;;;5047197;28;20468;-41
2022/03/25 04:52:27;;;;;;;65.93;41.28;;;6.20;92.30;;;;;;5048029;28;20029;-42
2022/03/25 04:54:52;;;;;;;65.05;42.55;;;6.20;92.40;;;;;;5047556;28;20045;-43
2022/03/25 04:57:18;;;;;;;65.78;41.33;;;6.20;92.50;;;;;;5047836;28;20044;-43
2022/03/25 04:59:43;;;;;;;66.50;42.78;;;6.20;92.80;;;;;;5046968;28;20488;-41
2022/03/25 05:02:10;;;;;;;63.40;41.85;;;6.20;92.70;;;;;;5047851;28;20028;-42
2022/03/25 05:04:35;;;;;;;66.45;41.40;;;6.10;92.70;;;;;;5047232;28;20028;-42
2022/03/25 05:07:01;;;;;;;62.50;40.20;;;6.10;92.70;;;;;;5046975;28;20021;-40
2022/03/25 05:09:27;;;;;;;66.82;42.58;;;6.10;92.70;;;;;;5047669;28;20106;-41
2022/03/25 05:11:53;;;;;;;64.97;41.55;;;6.10;92.80;;;;;;5046333;28;20036;-42
2022/03/25 05:14:19;;;;;;;69.80;44.85;;;6.10;92.90;;;;;;5047953;28;20906;-42
2022/03/25 05:16:44;;;;;;;65.95;42.20;;;6.00;93.00;;;;;;5046624;28;20025;-42
2022/03/25 05:19:10;;;;;;;70.63;44.20;;;6.00;93.00;;;;;;5046860;28;20531;-42
2022/03/25 05:21:37;;;;;;;65.55;40.28;;;6.00;93.00;;;;;;5047093;28;20071;-42
2022/03/25 05:24:03;;;;;;;65.60;41.22;;;6.00;93.00;;;;;;5046072;28;20040;-42
2022/03/25 05:26:28;;;;;;;68.50;43.78;;;5.90;93.10;;;;;;5047512;28;20013;-41
2022/03/25 05:28:54;;;;;;;69.35;43.40;;;5.90;93.10;;;;;;5046473;28;20049;-42
2022/03/25 05:31:19;;;;;;;74.30;46.55;;;5.90;93.20;;;;;;5046442;28;20072;-41
2022/03/25 05:33:45;;;;;;;76.53;49.83;;;5.90;93.30;;;;;;5046455;28;20469;-40
2022/03/25 05:36:10;;;;;;;79.43;48.42;;;5.90;93.60;;;;;;5047138;28;20138;-41
2022/03/25 05:38:36;;;;;;;84.43;53.88;;;5.90;93.70;;;;;;5046292;28;20507;-43
2022/03/25 05:41:01;;;;;;;83.07;52.35;;;5.80;93.90;;;;;;5046330;28;20031;-41
2022/03/25 05:43:28;;;;;;;92.43;57.30;;;5.80;94.20;;;;;;5046934;28;20481;-40
2022/03/25 05:45:53;;;;;;;83.53;54.05;;;5.80;94.40;;;;;;5045780;28;20021;-42
2022/03/25 05:48:19;;;;;;;86.55;54.40;;;5.80;94.70;;;;;;5046493;28;20021;-42
2022/03/25 05:50:44;;;;;;;85.93;53.42;;;5.70;94.90;;;;;;5046241;28;20720;-41
2022/03/25 05:53:10;;;;;;;89.55;54.25;;;5.70;94.90;;;;;;5046432;28;20115;-40
2022/03/25 05:55:35;;;;;;;82.90;52.70;;;5.60;95.00;;;;;;5046617;28;20844;-42
2022/03/25 05:58:01;;;;;;;83.95;52.05;;;5.60;95.20;;;;;;5046074;28;20059;-41
2022/03/25 06:00:26;;;;;;;85.38;50.92;;;5.60;95.30;;;;;;5046325;28;20045;-40
2022/03/25 06:02:52;;;;;;;76.68;47.22;;;5.60;95.30;;;;;;5045983;28;20079;-43
2022/03/25 06:05:18;;;;;;;77.60;48.13;;;5.60;95.40;;;;;;5046482;28;20075;-41
2022/03/25 06:07:44;;;;;;;76.78;46.00;;;5.60;95.50;;;;;;5045468;28;20103;-42
2022/03/25 06:10:11;;;;;;;71.88;44.28;;;5.60;95.60;;;;;;5046919;28;20041;-42
2022/03/25 06:12:39;;;;;;;69.38;45.05;;;5.60;95.60;;;;;;5046330;28;20083;-42
2022/03/25 06:15:06;;;;;;;68.22;41.38;;;5.70;95.80;;;;;;5045640;28;20036;-42
2022/03/25 06:17:32;;;;;;;69.22;42.67;;;5.70;95.80;;;;;;5046591;28;20098;-42
2022/03/25 06:19:58;;;;;;;65.88;43.00;;;5.70;95.90;;;;;;5045840;28;20060;-42
2022/03/25 06:22:24;;;;;;;67.85;42.70;;;5.80;95.90;;;;;;5045619;28;20107;-42
2022/03/25 06:24:53;;;;;;;71.13;43.30;;;5.80;96.00;;;;;;5045966;28;20871;-43
2022/03/25 06:27:19;;;;;;;66.63;42.58;;;5.80;96.10;;;;;;5046059;28;20035;-41
2022/03/25 06:29:45;;;;;;;73.53;44.80;;;5.80;96.10;;;;;;5045438;28;20028;-42
2022/03/25 06:32:11;;;;;;;65.57;40.45;;;5.90;96.20;;;;;;5046869;28;20025;-41
2022/03/25 06:34:36;;;;;;;67.75;41.72;;;5.90;96.20;;;;;;5045480;28;20256;-41
2022/03/25 06:37:03;;;;;;;60.60;38.58;;;5.90;96.30;;;;;;5045563;28;20378;-41
2022/03/25 06:39:29;;;;;;;67.70;40.47;;;5.90;96.30;;;;;;5045915;28;20036;-42
2022/03/25 06:41:54;;;;;;;68.20;43.35;;;6.00;96.40;;;;;;5045253;28;20021;-41
2022/03/25 06:44:20;;;;;;;74.15;47.40;;;6.00;96.50;;;;;;5045833;28;20075;-40
2022/03/25 06:46:46;;;;;;;79.75;49.75;;;6.10;96.60;;;;;;5045580;28;20052;-41
2022/03/25 06:49:12;;;;;;;81.63;50.42;;;6.20;96.60;;;;;;5044830;28;20760;-38
2022/03/25 06:51:38;;;;;;;76.32;48.72;;;6.20;96.60;;;;;;5045558;28;20025;-41
2022/03/25 06:54:03;;;;;;;81.13;50.33;;;6.20;96.60;;;;;;5044293;28;20143;-41
2022/03/25 06:56:32;;;;;;;75.18;48.95;;;6.30;96.80;;;;;;5045291;28;20423;-40
2022/03/25 06:58:58;;;;;;;78.50;49.70;;;6.30;96.80;;;;;;5044832;28;20425;-42
2022/03/25 07:01:25;;;;;;;81.38;51.03;;;6.30;96.90;;;;;;5045909;28;20757;-41
2022/03/25 07:03:50;;;;;;;83.50;54.05;;;6.40;97.10;;;;;;5044495;28;20425;-40
2022/03/25 07:06:23;;;;;;;82.63;53.08;;;6.40;97.20;;;;;;5045453;28;20076;-42
2022/03/25 07:08:52;;;;;;;;;;;6.40;97.30;;;;;;5045443;28;20110;-41
2022/03/25 07:11:21;;;;;;;86.88;53.45;;;6.40;97.40;;;;;;5044375;28;20364;-40
2022/03/25 07:13:47;;;;;;;80.90;50.90;;;6.40;97.40;;;;;;5044873;28;20036;-41
2022/03/25 07:16:13;;;;;;;76.63;49.28;;;6.40;97.50;;;;;;5045142;28;20037;-41
2022/03/25 07:18:39;;;;;;;77.50;47.22;;;6.50;97.70;;;;;;5045210;28;20099;-43
2022/03/25 07:21:05;;;;;;;73.95;47.08;;;6.50;97.60;;;;;;5044586;28;20025;-43
2022/03/25 07:23:31;;;;;;;75.07;48.10;;;6.60;97.60;;;;;;5045594;28;20607;-41
2022/03/25 07:25:56;;;;;;;72.32;45.75;;;6.60;97.70;;;;;;5044304;28;20025;-41
2022/03/25 07:28:22;;;;;;;68.75;45.35;;;6.70;97.60;;;;;;5045404;28;20064;-43
2022/03/25 07:30:47;;;;;;;70.18;45.13;;;6.80;97.60;;;;;;5043691;28;20674;-43
2022/03/25 07:33:13;;;;;;;68.47;44.67;;;6.80;97.60;;;;;;5045314;28;20487;-42
2022/03/25 07:35:39;;;;;;;77.03;49.55;;;6.90;97.70;;;;;;5045170;28;20136;-42
2022/03/25 07:38:06;;;;;;;73.55;48.05;;;7.00;97.80;;;;;;5043563;28;20025;-41
2022/03/25 07:40:32;;;;;;;72.40;48.00;;;7.20;97.80;;;;;;5044752;28;20033;-40
2022/03/25 07:42:58;;;;;;;79.00;51.28;;;7.20;97.60;;;;;;5044467;28;20595;-41
2022/03/25 07:45:24;;;;;;;75.25;49.67;;;7.40;97.70;;;;;;5044592;28;20856;-41
2022/03/25 07:47:50;;;;;;;77.30;50.92;;;7.50;97.70;;;;;;5044204;28;20025;-41
2022/03/25 07:50:18;;;;;;;70.53;46.85;;;7.50;97.60;;;;;;5044736;28;20036;-43
2022/03/25 07:52:45;;;;;;;76.05;48.05;;;7.60;97.60;;;;;;5043885;28;20028;-41
2022/03/25 07:55:11;;;;;;;69.30;45.60;;;7.70;97.60;;;;;;5045152;28;20061;-42
2022/03/25 07:57:38;;;;;;;65.82;44.63;;;7.70;97.50;;;;;;5044793;28;20021;-42
2022/03/25 08:00:11;;;;;;;64.18;41.95;;;7.80;97.50;;;;;;5043485;28;20071;-40
2022/03/25 08:02:43;;;;;;;56.03;38.88;;;7.80;97.40;;;;;;5044262;28;20469;-39
2022/03/25 08:05:10;;;;;;;63.85;41.70;;;7.90;97.40;;;;;;5045510;28;20035;-41
2022/03/25 08:07:52;;;;;;;63.40;40.95;;;8.00;97.40;;;;;;5046553;28;20024;-43
2022/03/25 08:10:20;;;;;;;66.38;43.75;;;8.00;97.30;;;;;;5029219;28;20048;-43
2022/03/25 08:12:46;;;;;;;69.57;45.13;;;8.10;97.20;;;;;;5045028;28;20024;-43
2022/03/25 08:15:13;;;;;;;73.95;47.33;;;8.20;97.30;;;;;;5048081;28;20036;-41
2022/03/25 08:17:56;;;;;;;71.72;48.20;;;8.30;97.30;;;;;;5048728;28;20029;-41
2022/03/25 08:20:24;;;;;;;62.50;42.13;;;8.30;97.20;;;;;;5048918;28;20099;-42
2022/03/25 08:22:51;;;;;;;66.72;43.17;;;8.40;97.10;;;;;;5047652;28;20025;-41
2022/03/25 08:28:01;;;;;;;64.88;42.53;;;8.60;96.90;;;;;;5047356;28;20043;-42
2022/03/25 08:30:31;;;;;;;60.28;41.83;;;8.70;96.80;;;;;;5048101;28;20025;-40
2022/03/25 08:32:57;;;;;;;64.63;41.45;;;8.80;96.80;;;;;;5047911;28;20104;-42
2022/03/25 08:35:24;;;;;;;64.50;41.22;;;8.90;96.60;;;;;;5048209;28;20035;-43
2022/03/25 08:37:50;;;;;;;58.70;40.15;;;9.00;96.50;;;;;;5047497;28;20787;-41
2022/03/25 08:40:15;;;;;;;58.58;39.30;;;9.10;96.30;;;;;;5048327;28;20076;-41
2022/03/25 08:42:41;;;;;;;59.67;40.80;;;9.20;96.10;;;;;;5046827;28;20380;-42
2022/03/25 08:45:06;;;;;;;63.38;41.58;;;9.30;95.90;;;;;;5048331;28;20029;-42
2022/03/25 08:47:32;;;;;;;62.92;42.47;;;9.40;95.60;;;;;;5048527;28;20033;-43
2022/03/25 08:49:58;;;;;;;59.58;40.42;;;9.50;95.40;;;;;;5046842;28;20455;-41
2022/03/25 08:52:24;;;;;;;62.30;42.30;;;9.60;95.10;;;;;;5047668;28;20778;-42
2022/03/25 08:54:49;;;;;;;58.63;40.25;;;9.70;95.00;;;;;;5047484;28;20056;-42
2022/03/25 08:57:15;;;;;;;62.78;41.67;;;9.80;94.80;;;;;;5047483;28;20025;-40
2022/03/25 08:59:40;;;;;;;62.13;42.08;;;9.90;94.60;;;;;;5047178;28;20048;-40
2022/03/25 09:02:06;;;;;;;64.97;42.78;;;9.90;94.20;;;;;;5048064;28;20029;-41
2022/03/25 09:04:32;;;;;;;64.75;44.00;;;10.00;93.90;;;;;;5046846;28;20048;-43
2022/03/25 09:07:00;;;;;;;63.38;40.80;;;10.10;93.40;;;;;;5047739;28;20131;-41
2022/03/25 09:09:26;;;;;;;65.07;42.22;;;10.20;93.30;;;;;;5047399;28;20035;-42
2022/03/25 09:11:51;;;;;;;65.47;40.72;;;10.20;93.10;;;;;;5046765;28;20852;-44
2022/03/25 09:14:17;;;;;;;61.38;40.67;;;10.30;92.90;;;;;;5047655;28;20029;-42
2022/03/25 09:16:45;;;;;;;59.75;39.67;;;10.40;92.80;;;;;;5046531;28;20033;-43
2022/03/25 09:19:12;;;;;;;61.63;38.55;;;10.50;92.70;;;;;;5047412;28;20131;-41
2022/03/25 09:21:37;;;;;;;57.97;37.55;;;10.50;92.60;;;;;;5048016;28;20174;-41
2022/03/25 09:24:03;;;;;;;54.78;37.58;;;10.70;92.50;;;;;;5046654;28;20036;-41
2022/03/25 09:26:29;;;;;;;57.80;38.38;;;10.70;92.10;;;;;;5047678;28;20698;-41
2022/03/25 09:28:54;;;;;;;58.85;38.65;;;10.80;91.60;;;;;;5046714;28;20067;-42
2022/03/25 09:31:20;;;;;;;57.63;36.25;;;10.90;91.00;;;;;;5046843;28;20031;-46
2022/03/25 09:33:46;;;;;;;51.75;34.88;;;10.90;90.90;;;;;;5046781;28;20095;-42
2022/03/25 09:36:14;;;;;;;47.30;31.98;;;11.00;90.70;;;;;;5047145;28;20484;-41
2022/03/25 09:38:39;;;;;;;49.97;31.88;;;11.10;90.70;;;;;;5046707;28;20444;-41
2022/03/25 09:41:06;;;;;;;45.25;30.50;;;11.20;90.50;;;;;;5046312;28;20498;-41
2022/03/25 09:43:34;;;;;;;49.78;32.75;;;11.30;90.50;;;;;;5047231;28;20021;-43
2022/03/25 09:46:00;;;;;;;50.75;34.75;;;11.40;90.50;;;;;;5045668;28;20060;-41
2022/03/25 09:48:25;;;;;;;49.97;32.60;;;11.40;90.10;;;;;;5047609;28;20052;-40
2022/03/25 09:50:51;;;;;;;46.22;32.00;;;11.50;90.00;;;;;;5046237;28;20091;-43
2022/03/25 09:53:16;;;;;;;52.33;34.10;;;11.60;89.40;;;;;;5045785;28;20064;-42
2022/03/25 09:55:46;;;;;;;51.17;32.97;;;11.70;88.40;;;;;;5046629;28;20076;-42
2022/03/25 09:58:18;;;;;;;53.58;36.10;;;11.70;88.20;;;;;;5046766;28;20035;-42
2022/03/25 10:00:48;;;;;;;51.92;34.20;;;11.80;87.80;;;;;;5045714;28;20033;-41
2022/03/25 10:03:27;;;;;;;52.83;34.72;;;11.90;87.50;;;;;;5046800;28;20033;-41
2022/03/25 10:05:54;;;;;;;52.35;36.47;;;11.90;86.60;;;;;;5046041;28;20032;-45
2022/03/25 10:08:33;;;;;;;54.75;36.33;;;12.00;86.50;;;;;;5046549;28;20029;-41
2022/03/25 10:11:18;;;;;;;55.42;37.20;;;12.10;86.20;;;;;;5046091;28;20021;-42
2022/03/25 10:13:43;;;;;;;49.28;33.50;;;12.20;86.20;;;;;;5045673;28;20033;-41
2022/03/25 10:16:29;;;;;;;54.63;36.10;;;12.30;86.30;;;;;;5046827;28;20043;-42
2022/03/25 10:18:56;;;;;;;49.03;33.55;;;12.30;86.40;;;;;;5046355;28;20175;-42
2022/03/25 10:21:22;;;;;;;60.05;38.80;;;12.30;86.40;;;;;;5046019;28;20039;-42
2022/03/25 10:23:48;;;;;;;50.75;34.25;;;12.40;86.30;;;;;;5046700;28;20120;-42
2022/03/25 10:26:13;;;;;;;51.30;35.22;;;12.50;86.40;;;;;;5047438;28;20104;-44
2022/03/25 10:28:44;;;;;;;51.00;34.67;;;12.50;86.20;;;;;;5044965;28;20025;-43
2022/03/25 10:31:11;;;;;;;50.70;33.95;;;12.60;86.00;;;;;;5046528;28;20031;-42
2022/03/25 10:33:46;;;;;;;55.63;35.83;;;12.60;86.00;;;;;;5046081;28;20039;-41
2022/03/25 10:36:17;;;;;;;60.10;38.03;;;12.70;85.90;;;;;;5045964;28;20036;-43
2022/03/25 10:38:46;;;;;;;51.35;34.40;;;12.80;85.50;;;;;;5045985;28;20031;-41
2022/03/25 10:41:20;;;;;;;58.92;38.05;;;12.90;85.40;;;;;;5045303;28;20033;-42
2022/03/25 10:43:52;;;;;;;53.78;34.60;;;12.90;85.20;;;;;;5045472;28;20017;-42
2022/03/25 10:46:40;;;;;;;53.75;34.80;;;13.00;84.90;;;;;;5046171;28;20273;-42
2022/03/25 10:49:12;;;;;;;52.45;33.80;;;13.00;84.90;;;;;;5034416;28;20013;-40
2022/03/25 10:51:43;;;;;;;47.38;33.38;;;13.10;84.90;;;;;;5045584;28;20040;-40
2022/03/25 10:54:11;;;;;;;46.28;32.33;;;13.10;84.90;;;;;;5045604;28;20049;-42
2022/03/25 10:56:45;;;;;;;54.22;36.00;;;13.20;85.10;;;;;;5045184;28;20040;-40
2022/03/25 10:59:30;;;;;;;50.17;33.65;;;13.30;85.00;;;;;;5046128;28;20103;-41
2022/03/25 11:01:59;;;;;;;49.97;31.85;;;13.30;84.90;;;;;;5045115;28;20048;-40
2022/03/25 11:04:25;;;;;;;54.13;34.78;;;13.40;84.50;;;;;;5045481;28;20025;-42
2022/03/25 11:06:52;;;;;;;50.20;32.42;;;13.50;84.10;;;;;;5045091;28;20036;-40
2022/03/25 11:09:19;;;;;;;45.33;30.60;;;13.50;83.90;;;;;;5045174;28;20033;-40
2022/03/25 11:11:47;;;;;;;43.05;29.35;;;13.60;83.90;;;;;;5045152;28;20128;-39
2022/03/25 11:14:16;;;;;;;43.83;28.75;;;13.60;83.60;;;;;;5045367;28;20021;-41
2022/03/25 11:16:47;;;;;;;39.40;26.10;;;13.70;82.60;;;;;;5045300;28;20035;-43
2022/03/25 11:19:14;;;;;;;37.38;25.30;;;13.80;81.40;;;;;;5045113;28;20037;-42
2022/03/25 11:21:43;;;;;;;42.08;25.70;;;13.90;81.30;;;;;;5045252;28;20029;-42
2022/03/25 11:24:33;;;;;;;39.53;25.75;;;13.90;81.30;;;;;;5044713;28;20060;-43
2022/03/25 11:27:02;;;;;;;33.20;21.65;;;14.00;81.20;;;;;;5024748;28;20029;-41
2022/03/25 11:29:32;;;;;;;30.70;21.13;;;14.00;81.40;;;;;;5042449;28;20152;-43
2022/03/25 11:32:12;;;;;;;35.38;23.58;;;14.10;81.40;;;;;;5044266;28;20025;-42
2022/03/25 11:34:47;;;;;;;30.48;20.35;;;14.10;81.40;;;;;;5045413;28;20139;-42
2022/03/25 11:37:30;;;;;;;28.65;20.55;;;14.10;81.40;;;;;;5044283;28;20056;-41
2022/03/25 11:40:25;;;;;;;31.70;22.42;;;14.20;81.50;;;;;;5044110;28;20033;-43
2022/03/25 11:42:55;;;;;;;36.83;25.15;;;14.30;81.60;;;;;;5044930;28;20033;-40
2022/03/25 11:45:21;;;;;;;33.15;22.10;;;14.40;81.60;;;;;;5044671;28;20025;-43
2022/03/25 11:48:05;;;;;;;34.08;24.58;;;14.50;81.60;;;;;;5044777;28;20083;-42
2022/03/25 11:50:42;;;;;;;38.90;25.98;;;14.60;81.50;;;;;;5044952;28;20032;-41
2022/03/25 11:53:11;;;;;;;32.78;22.95;;;14.60;81.00;;;;;;5045185;28;20021;-42
2022/03/25 11:56:09;;;;;;;29.83;21.08;;;14.70;81.00;;;;;;5045307;28;20040;-38
2022/03/25 11:58:55;;;;;;;36.45;26.20;;;14.70;81.10;;;;;;5046033;28;20024;-43
2022/03/25 12:01:22;;;;;;;41.75;29.17;;;14.80;80.80;;;;;;5044068;28;20068;-42
2022/03/25 12:03:49;;;;;;;36.83;27.02;;;14.90;80.30;;;;;;5044680;28;20028;-40
2022/03/25 12:06:19;;;;;;;34.20;23.90;;;14.90;80.40;;;;;;5044044;28;20040;-41
2022/03/25 12:09:08;;;;;;;40.45;26.48;;;15.00;80.60;;;;;;5045049;28;20040;-43
2022/03/25 12:11:53;;;;;;;36.30;25.15;;;15.00;80.30;;;;;;5043088;28;20064;-42
2022/03/25 12:15:00;;;;;;;41.58;29.05;;;15.00;80.10;;;;;;5044394;28;20025;-42
2022/03/25 12:17:25;;;;;;;34.25;25.50;;;15.10;79.80;;;;;;5037243;28;20056;-43
2022/03/25 12:19:54;;;;;;;33.90;23.85;;;15.10;79.80;;;;;;5043026;28;20510;-42
2022/03/25 12:22:19;;;;;;;33.15;23.67;;;15.20;80.00;;;;;;5044778;28;20063;-42
2022/03/25 12:24:45;;;;;;;33.28;24.35;;;15.20;79.90;;;;;;5044021;28;20068;-43
2022/03/25 12:27:11;;;;;;;32.92;22.38;;;15.20;80.00;;;;;;5043756;28;20036;-42
2022/03/25 12:29:47;;;;;;;34.28;24.58;;;15.30;80.50;;;;;;5044731;28;20025;-43
2022/03/25 12:32:15;;;;;;;35.47;25.35;;;15.40;80.40;;;;;;5042034;28;20037;-42
2022/03/25 12:34:59;;;;;;;31.35;21.58;;;15.30;80.60;;;;;;5043833;28;20444;-42
2022/03/25 12:37:31;;;;;;;33.33;22.67;;;15.40;80.70;;;;;;5045053;28;20039;-43
2022/03/25 12:40:28;;;;;;;34.72;24.40;;;15.40;80.70;;;;;;5043850;28;20040;-42